createdAt,value
2022-09-24T00:03:25.232Z,41.03
2022-09-24T00:08:27.724Z,51.55
2022-09-24T00:13:30.977Z,47.58
2022-09-24T00:18:32.832Z,40.58
2022-09-24T00:23:34.955Z,37.60
2022-09-24T00:28:37.744Z,40.78
2022-09-24T00:33:39.649Z,34.50
2022-09-24T00:38:41.613Z,35.17
2022-09-24T00:43:43.570Z,32.25
2022-09-24T00:48:47.495Z,32.17
2022-09-24T00:53:55.337Z,77.35
2022-09-24T00:59:02.005Z,33.45
2022-09-24T01:04:06.231Z,46.55
2022-09-24T01:09:08.918Z,36.70
2022-09-24T01:14:16.777Z,36.10
2022-09-24T01:19:30.744Z,45.33
2022-09-24T01:25:00.285Z,45.00
2022-09-24T01:30:10.586Z,35.38
2022-09-24T01:35:31.837Z,35.25
2022-09-24T01:40:34.794Z,34.05
2022-09-24T01:45:39.510Z,39.33
2022-09-24T01:50:51.883Z,41.15
2022-09-24T01:56:01.424Z,50.67
2022-09-24T02:01:10.525Z,51.70
2022-09-24T02:06:21.034Z,36.53
2022-09-24T02:11:24.467Z,31.55
2022-09-24T02:16:47.962Z,44.40
2022-09-24T02:21:50.819Z,35.88
2022-09-24T02:26:52.998Z,37.23
2022-09-24T02:31:57.199Z,39.33
2022-09-24T02:37:08.132Z,32.50
2022-09-24T02:42:13.667Z,38.47
2022-09-24T02:47:15.961Z,37.90
2022-09-24T02:52:18.973Z,41.42
2022-09-24T02:57:20.972Z,34.20
2022-09-24T03:02:23.004Z,58.42
2022-09-24T03:07:25.100Z,31.65
2022-09-24T03:12:27.210Z,33.42
2022-09-24T03:17:29.136Z,34.05
2022-09-24T03:22:31.000Z,33.90
2022-09-24T03:27:32.918Z,29.52
2022-09-24T03:32:35.879Z,29.92
2022-09-24T03:37:37.843Z,27.13
2022-09-24T03:42:39.949Z,29.73
2022-09-24T03:47:42.744Z,36.33
2022-09-24T03:52:44.672Z,32.33
2022-09-24T03:57:46.545Z,34.38
2022-09-24T04:02:48.479Z,33.90
2022-09-24T04:07:50.462Z,34.22
2022-09-24T04:12:52.853Z,30.63
2022-09-24T04:17:56.914Z,32.95
2022-09-24T04:22:59.606Z,70.68
2022-09-24T04:28:04.433Z,46.78
2022-09-24T04:33:07.154Z,39.45
2022-09-24T04:38:09.012Z,46.50
2022-09-24T04:43:10.898Z,35.58
2022-09-24T04:48:13.466Z,39.05
2022-09-24T04:53:15.352Z,34.13
2022-09-24T04:58:17.345Z,32.90
2022-09-24T05:03:21.308Z,40.25
2022-09-24T05:08:23.301Z,32.35
2022-09-24T05:13:26.886Z,58.45
2022-09-24T05:18:29.036Z,61.05
2022-09-24T05:23:31.101Z,40.22
2022-09-24T05:28:33.214Z,36.88
2022-09-24T05:33:36.190Z,34.08
2022-09-24T05:38:41.578Z,36.90
2022-09-24T05:43:43.796Z,32.28
2022-09-24T05:48:45.691Z,26.55
2022-09-24T05:53:47.633Z,21.08
2022-09-24T05:58:50.379Z,19.20
2022-09-24T06:03:52.354Z,22.35
2022-09-24T06:08:54.941Z,22.55
2022-09-24T06:13:57.048Z,23.02
2022-09-24T06:18:59.179Z,25.48
2022-09-24T06:24:01.222Z,21.23
2022-09-24T06:29:05.179Z,21.30
2022-09-24T06:34:07.378Z,19.83
2022-09-24T06:39:09.564Z,20.30
2022-09-24T06:44:11.625Z,19.30
2022-09-24T06:49:13.552Z,19.98
2022-09-24T06:54:16.933Z,24.77
2022-09-24T06:59:19.188Z,24.77
2022-09-24T07:04:21.137Z,23.13
2022-09-24T07:09:23.002Z,19.92
2022-09-24T07:14:25.041Z,21.48
2022-09-24T07:19:27.125Z,21.90
2022-09-24T07:24:29.061Z,16.40
2022-09-24T07:29:31.812Z,16.00
2022-09-24T07:34:33.773Z,18.15
2022-09-24T07:39:35.875Z,12.85
2022-09-24T07:44:38.223Z,12.55
2022-09-24T07:49:42.360Z,14.13
2022-09-24T07:54:44.469Z,10.90
2022-09-24T07:59:46.304Z,9.52
2022-09-24T08:04:49.021Z,12.00
2022-09-24T08:09:50.892Z,8.93
2022-09-24T08:14:52.927Z,9.73
2022-09-24T08:19:56.959Z,9.57
2022-09-24T08:24:59.051Z,12.02
2022-09-24T08:30:01.120Z,10.75
2022-09-24T08:35:03.101Z,9.95
2022-09-24T08:40:05.497Z,13.32
2022-09-24T08:45:28.316Z,11.80
2022-09-24T08:50:32.804Z,9.30
2022-09-24T08:55:48.041Z,10.43
2022-09-24T09:00:59.694Z,7.78
2022-09-24T09:06:05.421Z,11.30
2022-09-24T09:11:11.195Z,9.25
2022-09-24T09:16:27.975Z,10.00
2022-09-24T09:21:38.090Z,7.75
2022-09-24T09:26:40.005Z,8.77
2022-09-24T09:31:56.539Z,4.68
2022-09-24T09:37:04.538Z,9.75
2022-09-24T09:42:32.196Z,8.43
2022-09-24T09:47:41.521Z,13.38
2022-09-24T09:52:43.564Z,13.15
2022-09-24T09:57:45.916Z,9.48
2022-09-24T10:02:53.819Z,8.05
2022-09-24T10:07:59.676Z,10.13
2022-09-24T10:13:13.284Z,8.98
2022-09-24T10:23:23.416Z,7.47
2022-09-24T10:28:44.296Z,5.65
2022-09-24T10:33:49.366Z,3.63
2022-09-24T10:39:09.940Z,7.50
2022-09-24T10:44:14.810Z,4.53
2022-09-24T10:49:42.205Z,5.25
2022-09-24T10:55:02.234Z,6.07
2022-09-24T11:00:20.961Z,5.35
2022-09-24T11:05:23.834Z,3.42
2022-09-24T11:10:40.669Z,2.53
2022-09-24T11:16:04.635Z,3.65
2022-09-24T11:21:24.869Z,2.40
2022-09-24T11:26:47.627Z,4.03
2022-09-24T11:32:27.258Z,2.60
2022-09-24T11:37:58.645Z,4.18
2022-09-24T11:43:15.872Z,2.58
2022-09-24T11:48:55.592Z,4.93
2022-09-24T11:54:14.189Z,8.00
2022-09-24T11:59:41.002Z,4.07
2022-09-24T12:04:59.205Z,4.72
2022-09-24T12:10:19.329Z,3.13
2022-09-24T12:15:30.918Z,4.95
2022-09-24T12:20:48.501Z,6.38
2022-09-24T12:25:51.455Z,8.98
2022-09-24T12:31:18.514Z,4.87
2022-09-24T12:36:32.998Z,5.90
2022-09-24T12:41:39.510Z,5.55
2022-09-24T12:46:43.290Z,8.70
2022-09-24T12:51:45.476Z,5.22
2022-09-24T12:56:47.402Z,3.05
2022-09-24T13:01:49.369Z,5.82
2022-09-24T13:06:52.259Z,5.45
2022-09-24T13:12:22.030Z,8.30
2022-09-24T13:17:24.536Z,3.60
2022-09-24T13:22:38.539Z,4.38
2022-09-24T13:28:01.397Z,7.70
2022-09-24T13:33:24.108Z,2.00
2022-09-24T13:38:32.078Z,3.53
2022-09-24T13:43:48.832Z,5.05
2022-09-24T13:48:57.517Z,5.32
2022-09-24T13:54:16.350Z,4.57
2022-09-24T13:59:18.263Z,2.55
2022-09-24T14:04:22.724Z,13.05
2022-09-24T14:09:35.033Z,6.45
2022-09-24T14:14:36.994Z,4.30
2022-09-24T14:19:39.124Z,2.95
2022-09-24T14:24:49.614Z,2.60
2022-09-24T14:30:07.622Z,5.50
2022-09-24T14:35:24.608Z,60.28
2022-09-24T14:40:30.534Z,10.15
2022-09-24T14:45:40.585Z,3.40
2022-09-24T14:50:42.645Z,3.10
2022-09-24T14:55:46.574Z,8.13
2022-09-24T15:00:51.444Z,15.85
2022-09-24T15:06:16.718Z,3.50
2022-09-24T15:11:18.640Z,3.85
2022-09-24T15:16:29.698Z,10.18
2022-09-24T15:21:31.659Z,3.28
2022-09-24T15:26:35.664Z,4.25
2022-09-24T15:31:38.011Z,5.82
2022-09-24T15:41:43.542Z,8.48
2022-09-24T15:46:48.055Z,8.20
2022-09-24T15:51:56.077Z,18.63
2022-09-24T15:56:58.771Z,18.42
2022-09-24T16:02:03.953Z,21.27
2022-09-24T16:07:05.979Z,17.63
2022-09-24T16:12:08.094Z,14.30
2022-09-24T16:17:10.424Z,20.83
2022-09-24T16:22:14.820Z,18.55
2022-09-24T16:27:20.283Z,15.32
2022-09-24T16:32:22.701Z,20.65
2022-09-24T16:37:25.557Z,37.33
2022-09-24T16:42:27.667Z,38.40
2022-09-24T16:47:29.650Z,30.55
2022-09-24T16:52:32.059Z,19.42
2022-09-24T16:57:37.993Z,16.98
2022-09-24T17:02:40.055Z,30.23
2022-09-24T17:07:42.093Z,28.75
2022-09-24T17:12:49.921Z,26.67
2022-09-24T17:17:52.117Z,31.15
2022-09-24T17:22:54.004Z,35.70
2022-09-24T17:27:56.049Z,61.03
2022-09-24T17:32:58.141Z,43.42
2022-09-24T17:38:00.128Z,51.15
2022-09-24T17:43:02.138Z,42.35
2022-09-24T17:48:05.986Z,52.55
2022-09-24T17:53:10.278Z,64.88
2022-09-24T17:58:16.317Z,63.45
2022-09-24T18:03:19.070Z,70.40
2022-09-24T18:08:21.208Z,98.00
2022-09-24T18:13:23.569Z,103.22
2022-09-24T18:18:25.713Z,109.80
2022-09-24T18:23:28.687Z,123.63
2022-09-24T18:28:30.833Z,123.37
2022-09-24T18:33:34.602Z,138.48
2022-09-24T18:38:37.218Z,128.95
2022-09-24T18:43:40.035Z,171.48
2022-09-24T18:48:44.879Z,158.97
2022-09-24T18:54:07.262Z,157.73
2022-09-24T18:59:15.035Z,143.93
2022-09-24T19:04:18.948Z,146.52
2022-09-24T19:14:24.770Z,126.60
2022-09-24T19:19:27.642Z,128.57
2022-09-24T19:24:29.747Z,156.35
2022-09-24T19:29:31.797Z,170.90
2022-09-24T19:34:34.190Z,210.73
2022-09-24T19:39:36.473Z,214.50
2022-09-24T19:44:38.517Z,220.18
2022-09-24T19:49:40.605Z,249.90
2022-09-24T19:54:44.417Z,275.38
2022-09-24T19:59:46.631Z,212.27
2022-09-24T20:04:48.986Z,160.88
2022-09-24T20:09:51.118Z,200.70
2022-09-24T20:14:53.164Z,234.38
2022-09-24T20:19:56.731Z,234.13
2022-09-24T20:24:59.438Z,224.93
2022-09-24T20:30:01.363Z,184.60
2022-09-24T20:35:03.891Z,199.75
2022-09-24T20:40:06.718Z,132.25
2022-09-24T20:45:09.189Z,151.63
2022-09-24T20:50:11.428Z,65.18
2022-09-24T20:55:16.429Z,75.40
2022-09-24T21:00:24.612Z,74.57
2022-09-24T21:05:33.337Z,82.47
2022-09-24T21:10:35.804Z,78.75
2022-09-24T21:15:38.435Z,60.78
2022-09-24T21:20:40.360Z,56.45
2022-09-24T21:25:53.854Z,55.30
2022-09-24T21:31:03.476Z,66.72
2022-09-24T21:36:07.536Z,65.40
2022-09-24T21:41:09.528Z,55.33
2022-09-24T21:46:11.501Z,50.78
2022-09-24T21:51:21.189Z,47.35
2022-09-24T21:56:23.292Z,53.70
2022-09-24T22:01:30.953Z,44.13
2022-09-24T22:06:33.487Z,37.67
2022-09-24T22:11:36.268Z,31.13
2022-09-24T22:16:39.026Z,36.88
2022-09-24T22:21:40.970Z,29.20
2022-09-24T22:26:43.090Z,52.28
2022-09-24T22:31:45.073Z,43.17
2022-09-24T22:36:48.027Z,29.80
2022-09-24T22:41:50.857Z,29.93
2022-09-24T22:46:52.863Z,32.50
2022-09-24T22:51:54.800Z,31.77
2022-09-24T22:56:56.676Z,33.78
2022-09-24T23:01:58.589Z,36.10
2022-09-24T23:07:00.486Z,44.67
2022-09-24T23:12:02.715Z,37.78
2022-09-24T23:17:04.810Z,40.05
2022-09-24T23:22:06.804Z,43.45
2022-09-24T23:27:09.052Z,37.78
2022-09-24T23:32:11.969Z,35.60
2022-09-24T23:37:13.993Z,37.97
2022-09-24T23:42:15.943Z,69.15
2022-09-24T23:47:18.557Z,38.67
2022-09-24T23:52:20.474Z,39.17
2022-09-24T23:57:22.329Z,39.15
